Terminal Aerodrome Forecast
Issued by NWS

Home | Current Version | Previous Version | Text Only | Print | Product List | Glossary On
Versions: 1 2 3 4 5 6 7 8 9 10 11 12 13 14 15 16 17 18 19 20 21 22 23 24 25 26 27 28
692
FTUS43 KSGF 291127
TAFBBG
TAF
KBBG 291127Z 2912/3012 00000KT P6SM SCT120 BKN200
     FM291700 22004KT P6SM SCT050 SCT200
     FM292000 24004KT P6SM VCTS SCT050CB BKN200
     FM300100 00000KT P6SM SCT250=

USA.gov is the U.S. government's official web portal to all federal, state and local government web resources and services.